Terminal Aerodrome Forecast
Issued by NWS

Home | Current Version | Previous Version | Text Only | Print | Product List | Glossary On
Versions: 1 2 3 4 5 6 7 8 9 10 11 12 13
000
FTUS45 KSLC 252325
TAF36U
TAF
K36U 252325Z 2600/2624 25010KT P6SM VCSH SCT030 BKN060
     FM260200 VRB04KT P6SM SCT050 BKN100
     FM261400 32008KT P6SM VCSH SCT040 BKN080
     FM262000 27010G15KT P6SM -SHRA SCT040 BKN080=

USA.gov is the U.S. government's official web portal to all federal, state and local government web resources and services.